createdAt,value
2019-02-26T00:04:25.448Z,14.38
2019-02-26T00:09:35.028Z,15.10
2019-02-26T00:14:39.410Z,14.75
2019-02-26T00:19:47.067Z,15.16
2019-02-26T00:24:54.681Z,15.24
2019-02-26T00:30:02.376Z,15.74
2019-02-26T00:35:10.035Z,14.87
2019-02-26T00:40:20.152Z,14.81
2019-02-26T00:45:27.160Z,14.90
2019-02-26T00:50:33.130Z,15.40
2019-02-26T00:55:39.726Z,14.64
2019-02-26T01:00:46.476Z,14.83
2019-02-26T01:05:54.130Z,15.55
2019-02-26T01:11:03.851Z,18.03
2019-02-26T01:16:09.941Z,18.63
2019-02-26T01:21:17.599Z,18.15
2019-02-26T01:26:27.290Z,18.15
2019-02-26T01:31:33.927Z,18.74
2019-02-26T01:36:40.411Z,18.10
2019-02-26T01:41:47.937Z,18.93
2019-02-26T01:46:55.480Z,18.37
2019-02-26T01:52:01.806Z,18.19
2019-02-26T01:57:09.431Z,18.47
2019-02-26T02:02:18.107Z,17.34
2019-02-26T02:07:25.933Z,17.89
2019-02-26T02:12:34.387Z,17.62
2019-02-26T02:17:40.129Z,17.83
2019-02-26T02:22:48.542Z,17.62
2019-02-26T02:27:57.455Z,17.10
2019-02-26T02:33:03.864Z,17.59
2019-02-26T02:38:11.500Z,16.63
2019-02-26T02:43:21.375Z,17.13
2019-02-26T02:48:26.358Z,16.58
2019-02-26T02:53:34.102Z,16.16
2019-02-26T02:58:43.669Z,24.01
2019-02-26T03:03:50.517Z,15.83
2019-02-26T03:08:56.235Z,16.30
2019-02-26T03:14:06.206Z,15.78
2019-02-26T03:19:12.202Z,16.35
2019-02-26T03:24:18.587Z,15.96
2019-02-26T03:29:26.693Z,15.78
2019-02-26T03:34:34.696Z,15.52
2019-02-26T03:39:42.354Z,15.04
2019-02-26T03:44:50.043Z,15.43
2019-02-26T03:49:57.751Z,15.50
2019-02-26T03:55:06.825Z,15.33
2019-02-26T04:00:14.960Z,15.45
2019-02-26T04:05:20.100Z,15.76
2019-02-26T04:10:27.721Z,15.19
2019-02-26T04:15:36.451Z,15.22
2019-02-26T04:20:44.329Z,15.34
2019-02-26T04:25:51.606Z,15.32
2019-02-26T04:30:57.290Z,15.09
2019-02-26T04:36:04.990Z,15.02
2019-02-26T04:41:15.702Z,15.06
2019-02-26T04:46:19.770Z,15.04
2019-02-26T04:51:27.353Z,15.57
2019-02-26T04:56:37.057Z,14.98
2019-02-26T05:01:44.641Z,14.87
2019-02-26T05:06:49.680Z,15.49
2019-02-26T05:11:57.302Z,15.75
2019-02-26T05:17:05.113Z,14.91
2019-02-26T05:22:12.791Z,15.17
2019-02-26T05:27:22.735Z,15.18
2019-02-26T05:32:30.038Z,15.34
2019-02-26T05:37:37.374Z,15.20
2019-02-26T05:42:42.295Z,14.99
2019-02-26T05:47:50.707Z,15.06
2019-02-26T05:52:58.969Z,15.04
2019-02-26T05:58:04.396Z,14.69
2019-02-26T06:03:12.853Z,15.24
2019-02-26T06:08:19.310Z,14.72
2019-02-26T06:13:29.013Z,15.03
2019-02-26T06:18:34.181Z,15.76
2019-02-26T06:23:43.210Z,15.84
2019-02-26T06:28:50.505Z,15.93
2019-02-26T06:34:01.520Z,15.68
2019-02-26T06:39:06.010Z,15.80
2019-02-26T06:44:11.942Z,16.15
2019-02-26T06:49:20.700Z,16.87
2019-02-26T06:54:28.936Z,15.85
2019-02-26T06:59:36.361Z,16.44
2019-02-26T07:04:41.245Z,17.13
2019-02-26T07:09:48.889Z,16.87
2019-02-26T07:14:58.097Z,17.45
2019-02-26T07:20:03.665Z,16.51
2019-02-26T07:25:15.260Z,24.25
2019-02-26T07:30:18.530Z,16.02
2019-02-26T07:35:28.164Z,16.44
2019-02-26T07:41:07.746Z,18.32
2019-02-26T07:46:17.529Z,16.68
2019-02-26T07:51:22.682Z,17.02
2019-02-26T07:56:32.626Z,16.24
2019-02-26T08:01:39.538Z,18.19
2019-02-26T08:06:44.986Z,18.68
2019-02-26T08:11:52.590Z,18.89
2019-02-26T08:17:01.897Z,20.29
2019-02-26T08:22:07.514Z,18.87
2019-02-26T08:27:15.102Z,19.86
2019-02-26T08:32:23.952Z,19.38
2019-02-26T08:37:30.182Z,19.45
2019-02-26T08:42:37.940Z,20.17
2019-02-26T08:47:45.658Z,19.89
2019-02-26T08:52:55.557Z,21.50
2019-02-26T08:58:01.507Z,20.25
2019-02-26T09:03:10.739Z,20.58
2019-02-26T09:08:18.097Z,20.75
2019-02-26T09:13:25.470Z,21.23
2019-02-26T09:18:35.431Z,20.88
2019-02-26T09:23:38.944Z,21.13
2019-02-26T09:28:48.161Z,21.06
2019-02-26T09:33:53.685Z,20.69
2019-02-26T09:39:03.289Z,20.94
2019-02-26T09:44:09.105Z,20.69
2019-02-26T09:49:15.885Z,20.84
2019-02-26T09:54:24.417Z,20.46
2019-02-26T09:59:33.643Z,21.50
2019-02-26T10:04:39.359Z,21.08
2019-02-26T10:09:48.437Z,20.05
2019-02-26T10:14:54.822Z,20.97
2019-02-26T10:20:02.287Z,20.29
2019-02-26T10:25:08.634Z,20.78
2019-02-26T10:30:16.437Z,20.30
2019-02-26T10:35:32.504Z,19.92
2019-02-26T10:40:35.652Z,19.96
2019-02-26T10:45:41.597Z,19.72
2019-02-26T10:50:48.912Z,19.92
2019-02-26T10:55:53.226Z,20.68
2019-02-26T11:01:02.487Z,20.03
2019-02-26T11:06:09.974Z,20.63
2019-02-26T11:11:16.535Z,20.87
2019-02-26T11:16:25.221Z,19.06
2019-02-26T11:21:29.793Z,18.81
2019-02-26T11:26:38.255Z,21.26
2019-02-26T11:31:46.904Z,24.01
2019-02-26T11:36:54.206Z,23.73
2019-02-26T11:42:01.179Z,22.38
2019-02-26T11:47:08.104Z,20.15
2019-02-26T11:52:13.489Z,20.46
2019-02-26T11:57:21.205Z,20.00
2019-02-26T12:02:33.403Z,20.72
2019-02-26T12:07:36.204Z,19.44
2019-02-26T12:12:43.887Z,18.30
2019-02-26T12:17:52.284Z,17.45
2019-02-26T12:22:59.239Z,18.45
2019-02-26T12:28:08.144Z,16.44
2019-02-26T12:33:14.813Z,17.13
2019-02-26T12:38:21.622Z,16.99
2019-02-26T12:43:30.185Z,14.26
2019-02-26T12:48:37.834Z,13.88
2019-02-26T12:53:46.106Z,14.06
2019-02-26T12:58:52.034Z,14.33
2019-02-26T13:03:58.497Z,12.49
2019-02-26T13:09:06.277Z,10.65
2019-02-26T13:14:13.950Z,13.42
2019-02-26T13:19:22.730Z,14.27
2019-02-26T13:24:28.904Z,14.92
2019-02-26T13:29:42.439Z,12.78
2019-02-26T13:34:43.887Z,10.47
2019-02-26T13:39:51.525Z,11.13
2019-02-26T13:44:59.282Z,11.97
2019-02-26T13:50:06.894Z,12.10
2019-02-26T13:55:14.715Z,11.49
2019-02-26T14:00:26.481Z,11.51
2019-02-26T14:05:37.967Z,11.95
2019-02-26T14:10:37.309Z,12.03
2019-02-26T14:15:45.836Z,12.96
2019-02-26T14:20:53.554Z,12.03
2019-02-26T14:26:01.229Z,11.53
2019-02-26T14:31:08.885Z,11.36
2019-02-26T14:36:16.666Z,11.80
2019-02-26T14:41:24.366Z,10.78
2019-02-26T14:46:32.114Z,10.56
2019-02-26T14:51:39.857Z,11.75
2019-02-26T14:56:47.514Z,12.69
2019-02-26T15:01:55.170Z,13.81
2019-02-26T15:07:02.770Z,14.59
2019-02-26T15:12:10.474Z,15.22
2019-02-26T15:17:18.480Z,14.83
2019-02-26T15:22:26.195Z,14.41
2019-02-26T15:27:37.915Z,14.64
2019-02-26T15:32:41.075Z,14.49
2019-02-26T15:37:48.697Z,15.01
2019-02-26T15:42:56.478Z,15.67
2019-02-26T15:48:04.606Z,15.48
2019-02-26T15:53:11.257Z,13.52
2019-02-26T15:58:18.973Z,14.27
2019-02-26T16:03:29.294Z,12.82
2019-02-26T16:08:34.749Z,12.49
2019-02-26T16:13:42.064Z,12.26
2019-02-26T16:18:50.686Z,11.77
2019-02-26T16:23:58.619Z,12.35
2019-02-26T16:29:05.927Z,11.65
2019-02-26T16:34:13.674Z,10.92
2019-02-26T16:39:24.687Z,11.11
2019-02-26T16:44:34.146Z,11.22
2019-02-26T16:49:31.558Z,12.46
2019-02-26T16:54:40.906Z,11.65
2019-02-26T16:59:46.566Z,10.96
2019-02-26T17:04:54.153Z,11.53
2019-02-26T17:10:01.887Z,10.45
2019-02-26T17:15:09.525Z,11.21
2019-02-26T17:20:19.577Z,11.17
2019-02-26T17:25:27.543Z,10.56
2019-02-26T17:30:31.997Z,10.64
2019-02-26T17:35:39.760Z,9.96
2019-02-26T17:40:47.643Z,10.75
2019-02-26T17:45:55.445Z,10.81
2019-02-26T17:51:03.430Z,10.55
2019-02-26T17:56:11.033Z,9.96
2019-02-26T18:01:18.670Z,11.12
2019-02-26T18:06:26.422Z,9.88
2019-02-26T18:11:34.245Z,9.51
2019-02-26T18:16:42.085Z,9.88
2019-02-26T18:21:51.657Z,9.69
2019-02-26T18:26:57.261Z,10.04
2019-02-26T18:32:05.210Z,9.81
2019-02-26T18:37:13.014Z,11.90
2019-02-26T18:42:20.695Z,9.89
2019-02-26T18:47:28.478Z,9.66
2019-02-26T18:52:36.166Z,9.86
2019-02-26T18:57:44.226Z,9.74
2019-02-26T19:02:51.564Z,9.40
2019-02-26T19:07:59.177Z,8.78
2019-02-26T19:13:06.974Z,10.91
2019-02-26T19:18:14.638Z,11.02
2019-02-26T19:23:22.250Z,15.85
2019-02-26T19:28:30.275Z,15.20
2019-02-26T19:33:38.064Z,14.77
2019-02-26T19:38:45.750Z,14.49
2019-02-26T19:43:53.423Z,14.88
2019-02-26T19:49:01.176Z,14.40
2019-02-26T19:54:08.919Z,13.82
2019-02-26T19:59:16.646Z,14.41
2019-02-26T20:04:24.317Z,13.93
2019-02-26T20:09:32.022Z,13.85
2019-02-26T20:14:40.623Z,13.72
2019-02-26T20:19:48.360Z,12.80
2019-02-26T20:24:56.063Z,13.08
2019-02-26T20:30:04.628Z,13.15
2019-02-26T20:35:12.607Z,13.94
2019-02-26T20:40:19.440Z,13.59
2019-02-26T20:45:27.296Z,14.29
2019-02-26T20:50:34.999Z,14.75
2019-02-26T20:55:52.016Z,15.66
2019-02-26T21:00:49.984Z,15.69
2019-02-26T21:05:57.641Z,15.35
2019-02-26T21:11:05.246Z,16.08
2019-02-26T21:16:12.833Z,15.44
2019-02-26T21:21:20.538Z,15.44
2019-02-26T21:26:28.399Z,15.50
2019-02-26T21:31:35.990Z,15.25
2019-02-26T21:36:43.570Z,15.12
2019-02-26T21:41:51.323Z,15.54
2019-02-26T21:46:59.015Z,15.91
2019-02-26T21:52:08.925Z,16.57
2019-02-26T21:57:14.258Z,16.19
2019-02-26T22:02:21.891Z,16.30
2019-02-26T22:07:29.889Z,16.36
2019-02-26T22:12:37.645Z,15.64
2019-02-26T22:17:45.474Z,15.97
2019-02-26T22:22:53.233Z,15.85
2019-02-26T22:28:00.975Z,16.90
2019-02-26T22:33:08.639Z,16.61
2019-02-26T22:38:17.069Z,15.99
2019-02-26T22:43:24.785Z,16.26
2019-02-26T22:48:33.371Z,16.05
2019-02-26T22:53:41.158Z,16.11
2019-02-26T22:58:49.809Z,15.84
2019-02-26T23:03:57.429Z,16.01
2019-02-26T23:09:05.082Z,16.27
2019-02-26T23:14:12.666Z,16.50
2019-02-26T23:19:20.422Z,16.25
2019-02-26T23:24:28.511Z,16.49
2019-02-26T23:29:35.357Z,15.88
2019-02-26T23:34:43.018Z,16.88
2019-02-26T23:39:53.634Z,16.06
2019-02-26T23:44:59.001Z,16.04
2019-02-26T23:50:06.713Z,16.07
2019-02-26T23:55:14.321Z,16.00
